Triplett, Missouri
Current Conditions -  °F | °C
As of 3:35 AM on Thursday 23 Oct 2014 (Local Time) from KVER Reporting Station
Clear Clear  
Wind Chill: 46°   Ceiling: Unl
Heat Index: 48°   Visibility: 10mi
Dew Point: 43°   Wind: 5mph
Humidity: 83%   Direction: 140°SE
Pressure: 30.15"   Gusts: NA
Location:  39.5°N, 93.19°W
Report Text: KVER 230835Z AUTO 14004KT 10SM CLR 09/06 A3015 RMK AO2 T00870059
Loading
Personal Weather Stations






























Interactive Weather Map New forecast layout! Learn more

10-Day Weather Forecast

Advertisements
Track Severe Weather on mobile